• Join FlightAware (Why Join?)
  • Login
  • US Flag 
03:35AM EDT


 

Airport Tracker/Info


-or-


 

Live Flight TrackerFlight Track Log ✈ SKW6446 ✈ 21-Jun-2013 ✈ KLAX - KFAT

Flight Track Log - Related Links

Times and Time Zones

All times are in EDT time to prevent confusion due to time zone crossing. See the SKW6446 flight status page for this flight to view local times or setup timezone preferences in your user account.

Time Position Orientation Groundspeed Altitude Reporting Facility
EDT Latitude Longitude Course Direction KTS MPH feet Rate Location/Type
12:31PM 33.9500 -118.4500 338° Northwest 160 184 1,500  Level Southern California TRACON
12:32PM 33.9514 -118.4875 273° West 170 196 2,200 1,560 Climbing Los Angeles Center
12:33PM 33.9714 -118.5514 291° West 189 217 4,100 1,740 Climbing Los Angeles Center
12:34PM 34.0031 -118.5969 310° West 188 216 5,800 1,440 Climbing Los Angeles Center
12:35PM 34.0561 -118.6081 350° North 195 224 7,100 600 Climbing Los Angeles Center
12:36PM 34.1144 -118.6189 351° North 229 264 7,100 480 Level Los Angeles Center
12:37PM 34.2815 -118.5824 338° Northwest  Level FlightAware Approximate
12:37PM 34.1936 -118.5925 15° North 253 291 8,100  Level Los Angeles Center
12:38PM 34.2525 -118.5806 10° North 231 266 9,100 480 Climbing Los Angeles Center
12:39PM 34.3175 -118.6103 339° North 249 287 9,100 240 Level Los Angeles Center
12:40PM 34.3889 -118.5958 North 265 305 9,700 480 Climbing Los Angeles Center
12:41PM 34.4531 -118.6264 339° North 250 288 10,200 600 Climbing Los Angeles Center
12:42PM 34.5122 -118.6686 330° Northwest 247 284 11,000 420 Climbing Los Angeles Center
12:43PM 34.5867 -118.7189 331° Northwest 256 295 11,100 420 Climbing Los Angeles Center
12:44PM 34.6483 -118.7586 332° Northwest 250 288 11,900 960 Climbing Los Angeles Center
12:45PM 34.7047 -118.7978 330° Northwest 232 267 13,100 1,020 Climbing Los Angeles Center
12:46PM 34.7597 -118.8331 332° Northwest 226 260 14,100 840 Climbing Los Angeles Center
12:47PM 34.8144 -118.8647 335° Northwest 220 253 14,900 840 Climbing Los Angeles Center
12:48PM 34.8903 -118.8742 354° North 228 262 15,900 840 Climbing Los Angeles Center
12:49PM 34.9497 -118.8814 354° North 226 260 16,700 720 Climbing Los Angeles Center
12:50PM 35.0139 -118.8917 353° North 231 266 17,400 720 Climbing Los Angeles Center
12:51PM 35.0775 -118.9011 353° North 231 266 18,200 780 Climbing Los Angeles Center
12:52PM 35.1536 -118.9125 353° North 230 265 19,100 720 Climbing Los Angeles Center
12:53PM 35.2197 -118.9217 354° North 237 273 19,800 600 Climbing Los Angeles Center
12:55PM 35.2972 -118.9331 353° North 235 270 20,500 600 Climbing Los Angeles Center
12:56PM 35.3622 -118.9411 354° North 235 270 21,200 600 Climbing Los Angeles Center
12:57PM 35.4278 -118.9511 353° North 237 273 21,800 360 Climbing Los Angeles Center
12:58PM 35.5067 -118.9631 353° North 237 273 22,000 60 Climbing Los Angeles Center
12:59PM 35.5758 -118.9744 352° North 247 284 22,000  Level Los Angeles Center
01:00PM 35.6439 -118.9844 353° North 248 285 22,000  Level Los Angeles Center
01:01PM 35.7139 -118.9947 353° North 253 291 22,000  Level Los Angeles Center
01:02PM 35.7836 -119.0047 353° North 254 292 22,000 -300 Level Los Angeles Center
01:03PM 35.8689 -119.0181 353° North 260 299 21,400 -840 Descending Los Angeles Center
01:04PM 35.9450 -119.0372 348° North 280 322 20,300 -1,020 Descending Los Angeles Center
01:05PM 36.0183 -119.0728 339° North 284 327 19,400 -1,080 Descending Los Angeles Center
01:06PM 36.0928 -119.1061 340° North 285 328 18,100 -1,260 Descending Los Angeles Center
01:07PM 36.1653 -119.1419 338° Northwest 282 325 16,800 -1,260 Descending Los Angeles Center
01:08PM 36.2336 -119.1742 339° North 268 308 15,500 -1,380 Descending Los Angeles Center
01:09PM 36.3122 -119.2122 339° North 256 295 14,000 -1,380 Descending Los Angeles Center
01:10PM 36.3775 -119.2456 338° Northwest 256 295 12,700 -1,260 Descending Los Angeles Center
01:11PM 36.4417 -119.2756 339° North 253 291 11,400 -1,260 Descending Los Angeles Center
01:12PM 36.5058 -119.3050 340° North 249 287 10,100 -1,320 Descending Los Angeles Center
01:13PM 36.5636 -119.3481 329° Northwest 252 290 8,700 -1,500 Descending Los Angeles Center
01:15PM 36.6200 -119.4425 307° West 246 283 6,700 -1,680 Descending Oakland Center